Time;durP1;ratioP1;P1;durP2;ratioP2;P2;SDS_P1;SDS_P2;PMS_P1;PMS_P2;Temp;Humidity;BMP_temperature;BMP_pressure;BME280_temperature;BME280_humidity;BME280_pressure;Samples;Min_cycle;Max_cycle;Signal;HPM_P1;HPM_P2
2021/03/11 00:31:38;;;;;;;7.50;6.70;;;;;;;2.26;76.39;94257.57;833113;70;32960;-82
2021/03/11 01:01:34;;;;;;;8.65;7.37;;;;;;;2.36;75.79;94282.28;834468;71;32788;-84
2021/03/11 01:31:28;;;;;;;6.85;5.72;;;;;;;2.20;75.30;94267.08;829127;68;32686;-82
2021/03/11 01:46:47;;;;;;;;;;;;;;;;;;;;;
2021/03/11 02:16:44;;;;;;;7.03;5.95;;;;;;;2.03;74.85;94261.16;835720;69;32695;-82
2021/03/11 02:46:30;;;;;;;6.50;5.40;;;;;;;2.14;74.63;94303.75;835969;71;32618;-85
2021/03/11 03:16:53;;;;;;;7.65;6.53;;;;;;;2.03;74.57;94336.19;825860;71;32861;-85
2021/03/11 03:31:50;;;;;;;7.78;6.50;;;;;;;1.89;74.37;94331.36;827642;71;32917;-82
2021/03/11 03:46:44;;;;;;;;;;;;;;;;;;;;;
2021/03/11 04:01:51;;;;;;;6.15;5.55;;;;;;;1.97;74.48;94352.95;834605;71;32704;-85
2021/03/11 04:16:45;;;;;;;8.33;5.85;;;;;;;1.95;74.18;94358.88;800646;74;32872;-85
2021/03/11 04:31:46;;;;;;;8.38;7.05;;;;;;;1.84;74.15;94348.61;831120;70;33212;-85
2021/03/11 05:01:34;;;;;;;6.60;5.75;;;;;;;2.00;72.14;94405.50;834370;71;32717;-85
2021/03/11 05:16:13;;;;;;;4.83;4.20;;;;;;;2.11;70.78;94420.69;829602;71;31993;-77
2021/03/11 05:31:10;;;;;;;4.42;4.03;;;;;;;2.17;70.26;94432.69;828291;71;30784;-77
2021/03/11 05:46:16;;;;;;;4.10;3.70;;;;;;;2.32;69.36;94450.23;833937;70;32622;-77
2021/03/11 09:01:50;;;;;;;6.33;5.03;;;;;;;4.41;64.11;94705.48;827248;71;31723;-77
2021/03/11 09:16:16;;;;;;;7.00;5.35;;;;;;;5.05;62.53;94713.63;827798;71;31777;-77
2021/03/11 09:46:12;;;;;;;5.85;4.70;;;;;;;4.56;63.29;94733.95;827992;71;29762;-78
2021/03/11 10:01:38;;;;;;;6.22;5.60;;;;;;;4.14;61.73;94743.61;827266;71;31676;-78
2021/03/11 10:16:10;;;;;;;7.62;5.90;;;;;;;4.18;62.73;94758.46;828065;71;29300;-77
2021/03/11 10:31:11;;;;;;;11.70;7.42;;;;;;;4.66;62.48;94787.85;827929;71;29566;-79
2021/03/11 10:46:21;;;;;;;12.30;8.43;;;;;;;4.60;63.27;94809.90;823932;71;31701;-77
2021/03/11 11:01:25;;;;;;;9.45;6.50;;;;;;;4.39;63.03;94821.83;833781;71;32200;-78
2021/03/11 11:16:13;;;;;;;12.03;8.43;;;;;;;4.32;64.94;94818.64;834076;71;31025;-78
2021/03/11 11:31:14;;;;;;;7.85;5.60;;;;;;;4.39;64.79;94814.04;833319;71;31226;-79
2021/03/11 11:46:16;;;;;;;8.65;6.85;;;;;;;5.74;69.78;94805.28;833961;71;32145;-78
2021/03/11 12:01:09;;;;;;;7.92;6.70;;;;;;;4.78;63.34;94784.09;833847;71;28715;-78
2021/03/11 12:16:19;;;;;;;7.12;6.30;;;;;;;4.30;64.88;94787.41;833897;71;31738;-77
2021/03/11 12:31:17;;;;;;;7.85;7.05;;;;;;;4.78;63.08;94765.11;827308;71;32175;-78
2021/03/11 13:01:55;;;;;;;;;;;;;;;;;;;;;
2021/03/11 13:16:12;;;;;;;6.12;5.62;;;;;;;6.27;54.71;94774.13;833931;71;30902;-81
2021/03/11 13:31:19;;;;;;;7.47;6.37;;;;;;;6.64;56.06;94779.75;802255;73;31967;-78
2021/03/11 13:46:11;;;;;;;7.30;5.90;;;;;;;6.28;55.44;94745.19;828701;71;30403;-78
2021/03/11 14:01:18;;;;;;;6.42;5.83;;;;;;;6.24;53.00;94766.80;827399;71;31728;-78
2021/03/11 14:16:12;;;;;;;6.90;6.15;;;;;;;5.94;53.89;94746.83;834128;71;30237;-77
2021/03/11 14:31:14;;;;;;;7.75;6.55;;;;;;;5.80;54.53;94731.38;825730;71;31623;-79
2021/03/11 14:46:16;;;;;;;7.90;7.00;;;;;;;5.65;55.80;94727.37;828461;71;31857;-78
2021/03/11 15:01:38;;;;;;;8.05;7.25;;;;;;;5.51;56.80;94727.00;827914;71;32721;-76
2021/03/11 15:16:11;;;;;;;11.33;8.33;;;;;;;5.31;57.58;94747.95;809075;71;30863;-78
2021/03/11 15:31:15;;;;;;;12.70;8.48;;;;;;;5.20;58.41;94758.77;827664;71;32714;-77
2021/03/11 15:46:14;;;;;;;19.20;12.68;;;;;;;4.78;60.40;94777.59;828765;71;32951;-78
2021/03/11 16:01:17;;;;;;;18.55;13.03;;;;;;;4.45;62.73;94781.13;828502;71;32774;-79
2021/03/11 16:16:18;;;;;;;19.07;13.72;;;;;;;5.50;62.04;94774.89;827136;71;32687;-75
2021/03/11 16:31:17;;;;;;;22.98;17.37;;;;;;;4.48;63.46;94781.95;827342;71;33627;-77
2021/03/11 17:31:19;;;;;;;20.62;15.00;;;;;;;3.00;67.90;94815.03;827829;71;32732;-84
2021/03/11 17:46:14;;;;;;;39.90;23.40;;;;;;;2.67;67.68;94813.62;828627;71;32723;-83
2021/03/11 18:01:37;;;;;;;24.05;14.83;;;;;;;2.28;68.84;94830.19;862701;68;32612;-82
2021/03/11 18:31:38;;;;;;;32.25;20.72;;;;;;;2.16;69.55;94832.78;819879;71;33333;-82
2021/03/11 19:46:18;;;;;;;19.07;13.65;;;;;;;1.69;69.17;94859.93;793311;74;32896;-80
